Time;durP1;ratioP1;P1;durP2;ratioP2;P2;SDS_P1;SDS_P2;PMS_P1;PMS_P2;Temp;Humidity;BMP_temperature;BMP_pressure;BME280_temperature;BME280_humidity;BME280_pressure;Samples;Min_cycle;Max_cycle;Signal;HPM_P1;HPM_P2
2021/11/19 00:00:53;;;;;;;;;;;;;;;8.37;100.00;101426.63;5092485;28;20453;-73
2021/11/19 00:03:20;;;;;;;;;;;;;;;8.38;100.00;101436.50;5092674;28;20031;-74
2021/11/19 00:05:47;;;;;;;;;;;;;;;8.39;100.00;101426.53;5092294;28;19934;-72
2021/11/19 00:08:15;;;;;;;;;;;;;;;8.41;100.00;101418.34;5092110;28;19963;-73
2021/11/19 00:10:42;;;;;;;;;;;;;;;8.41;100.00;101430.03;5092206;28;20292;-74
2021/11/19 00:13:09;;;;;;;;;;;;;;;8.41;100.00;101431.88;5092294;28;20019;-75
2021/11/19 00:15:35;;;;;;;;;;;;;;;8.40;100.00;101436.38;5092302;28;20335;-74
2021/11/19 00:18:02;;;;;;;;;;;;;;;8.39;100.00;101423.81;5091784;28;19924;-71
2021/11/19 00:20:29;;;;;;;;;;;;;;;8.36;100.00;101432.13;5092311;28;19924;-72
2021/11/19 00:22:56;;;;;;;;;;;;;;;8.37;100.00;101420.34;5092113;28;19961;-71
2021/11/19 00:25:23;;;;;;;;;;;;;;;8.39;100.00;101437.34;5092180;28;19958;-71
2021/11/19 00:27:50;;;;;;;;;;;;;;;8.42;100.00;101439.88;5091687;28;20023;-73
2021/11/19 00:30:17;;;;;;;;;;;;;;;8.44;100.00;101431.66;5092022;28;20626;-74
2021/11/19 00:32:44;;;;;;;;;;;;;;;8.45;100.00;101444.25;5091498;28;20428;-74
2021/11/19 00:35:10;;;;;;;;;;;;;;;8.46;100.00;101429.78;5091629;28;19924;-75
2021/11/19 00:37:36;;;;;;;;;;;;;;;8.47;100.00;101418.88;5090940;28;19951;-73
2021/11/19 00:40:04;;;;;;;;;;;;;;;8.52;100.00;101427.59;5090687;28;20020;-73
2021/11/19 00:42:31;;;;;;;;;;;;;;;8.56;100.00;101427.38;5090377;28;19954;-73
2021/11/19 00:44:58;;;;;;;;;;;;;;;8.56;100.00;101427.38;5091583;28;20018;-74
2021/11/19 00:47:24;;;;;;;;;;;;;;;8.59;100.00;101429.88;5091545;28;20336;-74
2021/11/19 00:49:50;;;;;;;;;;;;;;;8.61;100.00;101426.13;5090360;28;19935;-73
2021/11/19 00:52:17;;;;;;;;;;;;;;;8.61;100.00;101419.84;5091234;28;19932;-73
2021/11/19 00:54:44;;;;;;;;;;;;;;;8.63;100.00;101417.91;5091640;28;19924;-74
2021/11/19 00:57:12;;;;;;;;;;;;;;;8.64;100.00;101430.47;5089993;28;20086;-73
2021/11/19 00:59:41;;;;;;;;;;;;;;;8.65;100.00;101424.09;5091429;28;20014;-74
2021/11/19 01:02:13;;;;;;;;;;;;;;;8.67;100.00;101430.28;5089748;28;19939;-73
2021/11/19 01:04:40;;;;;;;;;;;;;;;8.67;100.00;101430.28;5090547;28;19995;-73
2021/11/19 01:07:11;;;;;;;;;;;;;;;8.68;100.00;101435.59;5090509;28;19924;-73
2021/11/19 01:09:39;;;;;;;;;;;;;;;8.69;100.00;101431.94;5089925;28;20012;-74
2021/11/19 01:12:07;;;;;;;;;;;;;;;8.75;100.00;101437.94;5090199;28;19924;-73
2021/11/19 01:14:35;;;;;;;;;;;;;;;8.76;100.00;101442.38;5090158;28;19935;-73
2021/11/19 01:17:05;;;;;;;;;;;;;;;8.76;100.00;101428.84;5090976;28;19928;-73
2021/11/19 01:19:33;;;;;;;;;;;;;;;8.79;100.00;101432.25;5090641;28;19935;-73
2021/11/19 01:22:02;;;;;;;;;;;;;;;8.80;100.00;101433.09;5090155;28;19924;-73
2021/11/19 01:24:29;;;;;;;;;;;;;;;8.79;100.00;101432.25;5090091;28;19940;-74
2021/11/19 01:26:57;;;;;;;;;;;;;;;8.80;100.00;101427.69;5089775;28;19924;-73
2021/11/19 01:29:25;;;;;;;;;;;;;;;8.80;100.00;101409.59;5089298;28;20020;-74
2021/11/19 01:31:53;;;;;;;;;;;;;;;8.83;100.00;101422.97;5089573;28;19928;-73
2021/11/19 01:34:35;;;;;;;;;;;;;;;8.85;100.00;101409.31;5089918;28;19966;-74
2021/11/19 01:37:10;;;;;;;;;;;;;;;8.86;100.00;101411.94;5089669;28;19986;-73
2021/11/19 01:40:08;;;;;;;;;;;;;;;8.87;100.00;101420.91;5089669;28;19924;-73
2021/11/19 01:42:52;;;;;;;;;;;;;;;8.90;100.00;101412.63;5089527;28;19935;-74
2021/11/19 01:45:20;;;;;;;;;;;;;;;8.92;100.00;101420.63;5089777;28;19924;-73
2021/11/19 01:47:47;;;;;;;;;;;;;;;8.93;100.00;101427.81;5086008;28;19933;-74
2021/11/19 01:50:20;;;;;;;;;;;;;;;8.94;100.00;101411.44;5089578;28;19924;-73
2021/11/19 01:52:50;;;;;;;;;;;;;;;8.95;100.00;101421.31;5090802;28;20447;-72
2021/11/19 01:55:19;;;;;;;;;;;;;;;8.94;100.00;101414.16;5089426;28;20397;-74
2021/11/19 01:57:50;;;;;;;;;;;;;;;8.94;100.00;101424.09;5089281;28;19967;-73
2021/11/19 02:00:18;;;;;;;;;;;;;;;8.95;100.00;101409.59;5089860;28;19924;-73
2021/11/19 02:02:49;;;;;;;;;;;;;;;8.99;100.00;101422.88;5091156;28;20566;-73
2021/11/19 02:05:28;;;;;;;;;;;;;;;9.01;100.00;101420.06;5089368;28;19928;-74
2021/11/19 02:07:55;;;;;;;;;;;;;;;9.02;100.00;101413.69;5090639;28;19934;-73
2021/11/19 02:10:36;;;;;;;;;;;;;;;9.02;100.00;101411.81;5089632;28;19955;-74
2021/11/19 02:16:04;;;;;;;;;;;;;;;9.05;100.00;101400.78;5094557;22;19924;-73
2021/11/19 02:18:33;;;;;;;;;;;;;;;9.07;100.00;101413.38;5082233;28;20277;-73
2021/11/19 02:21:06;;;;;;;;;;;;;;;9.07;100.00;101407.94;5063684;28;19978;-73
2021/11/19 02:23:35;;;;;;;;;;;;;;;9.10;100.00;101426.72;5055968;28;19935;-73
2021/11/19 02:26:04;;;;;;;;;;;;;;;9.11;100.00;101414.91;5068963;28;20040;-73
2021/11/19 02:28:32;;;;;;;;;;;;;;;9.12;100.00;101408.53;5070054;28;20350;-73
2021/11/19 02:31:00;;;;;;;;;;;;;;;9.11;100.00;101410.34;5072870;28;20002;-73
2021/11/19 02:33:28;;;;;;;;;;;;;;;9.11;100.00;101413.06;5072540;28;19942;-73
2021/11/19 02:35:58;;;;;;;;;;;;;;;9.11;100.00;101390.53;5090929;28;19965;-73
2021/11/19 02:38:31;;;;;;;;;;;;;;;9.12;100.00;101406.69;5109775;28;20539;-73
2021/11/19 02:40:57;;;;;;;;;;;;;;;9.14;100.00;101399.34;5109734;28;19958;-73
2021/11/19 02:43:27;;;;;;;;;;;;;;;9.16;100.00;101407.38;5109625;28;19945;-72
2021/11/19 02:45:55;;;;;;;;;;;;;;;9.19;100.00;101418.00;5109469;28;20453;-72
2021/11/19 02:48:22;;;;;;;;;;;;;;;9.23;100.00;101422.25;5109612;28;20057;-72
2021/11/19 02:50:50;;;;;;;;;;;;;;;9.26;100.00;101415.75;5109404;28;19928;-73
2021/11/19 02:53:16;;;;;;;;;;;;;;;9.29;100.00;101423.72;5109768;28;19924;-73
2021/11/19 02:55:45;;;;;;;;;;;;;;;9.31;100.00;101417.22;5109275;28;19954;-72
2021/11/19 02:58:13;;;;;;;;;;;;;;;9.36;100.00;101425.88;5109575;28;19958;-73
2021/11/19 03:00:42;;;;;;;;;;;;;;;9.40;100.00;101420.28;5109193;28;19989;-73
2021/11/19 03:03:08;;;;;;;;;;;;;;;9.42;100.00;101423.75;5109581;28;20020;-73
2021/11/19 03:05:35;;;;;;;;;;;;;;;9.46;100.00;101415.34;5109159;28;19982;-74
2021/11/19 03:08:01;;;;;;;;;;;;;;;9.50;100.00;101416.00;5109149;28;19935;-73
2021/11/19 03:10:29;;;;;;;;;;;;;;;9.49;100.00;101407.00;5107332;28;19976;-74
2021/11/19 03:12:56;;;;;;;;;;;;;;;9.53;100.00;101408.53;5071867;28;19978;-73
2021/11/19 03:15:24;;;;;;;;;;;;;;;9.55;100.00;101417.44;5054968;28;19924;-73
2021/11/19 03:17:50;;;;;;;;;;;;;;;9.61;100.00;101416.16;5071545;28;20024;-73
2021/11/19 03:20:18;;;;;;;;;;;;;;;9.64;100.00;101409.66;5071915;28;19947;-73
2021/11/19 03:22:45;;;;;;;;;;;;;;;9.69;100.00;101421.09;5072131;28;20018;-73
2021/11/19 03:25:14;;;;;;;;;;;;;;;9.75;100.00;101408.94;5071416;28;19925;-73
2021/11/19 03:27:41;;;;;;;;;;;;;;;9.77;100.00;101410.59;5055108;28;20023;-73
2021/11/19 03:30:19;;;;;;;;;;;;;;;9.81;100.00;101403.13;5071452;28;19925;-73
2021/11/19 03:32:47;;;;;;;;;;;;;;;9.84;100.00;101411.91;5055476;28;19925;-73
2021/11/19 03:35:14;;;;;;;;;;;;;;;9.85;100.00;101405.50;5071362;28;20095;-72
2021/11/19 03:37:41;;;;;;;;;;;;;;;9.87;100.00;101409.00;5071826;28;19931;-73
2021/11/19 03:40:08;;;;;;;;;;;;;;;9.86;100.00;101420.81;5072436;28;19935;-73
2021/11/19 03:42:35;;;;;;;;;;;;;;;9.88;100.00;101415.28;5054709;28;19962;-73
2021/11/19 03:45:02;;;;;;;;;;;;;;;9.86;100.00;101417.22;5072264;28;19925;-73
2021/11/19 03:47:31;;;;;;;;;;;;;;;9.88;100.00;101409.88;5078571;28;20004;-73
2021/11/19 03:49:58;;;;;;;;;;;;;;;9.89;100.00;101414.31;5074698;28;19969;-73
2021/11/19 03:52:25;;;;;;;;;;;;;;;9.92;100.00;101405.13;5074396;28;19962;-73
2021/11/19 03:54:53;;;;;;;;;;;;;;;9.96;100.00;101423.78;5091053;28;19928;-73
2021/11/19 03:57:21;;;;;;;;;;;;;;;10.00;100.00;101427.16;5074426;28;19928;-73
2021/11/19 03:59:47;;;;;;;;;;;;;;;9.98;100.00;101421.84;5092423;28;19970;-73
2021/11/19 04:02:14;;;;;;;;;;;;;;;9.96;100.00;101412.94;5074454;28;19935;-73
2021/11/19 04:04:43;;;;;;;;;;;;;;;9.96;100.00;101417.50;5092214;28;19982;-73
2021/11/19 04:07:11;;;;;;;;;;;;;;;9.97;100.00;101420.09;5090943;28;19932;-73
2021/11/19 04:09:40;;;;;;;;;;;;;;;9.96;100.00;101410.22;5090983;28;19963;-73
2021/11/19 04:12:08;;;;;;;;;;;;;;;9.95;100.00;101400.34;5076231;28;20296;-73
2021/11/19 04:14:36;;;;;;;;;;;;;;;9.96;100.00;101415.63;5070751;28;19936;-73
2021/11/19 04:17:02;;;;;;;;;;;;;;;9.98;100.00;101420.94;5070304;28;19951;-73
2021/11/19 04:19:30;;;;;;;;;;;;;;;9.98;100.00;101413.69;5070710;28;19932;-72
2021/11/19 04:21:59;;;;;;;;;;;;;;;10.02;100.00;101426.09;5071524;28;19933;-73
2021/11/19 04:24:28;;;;;;;;;;;;;;;10.04;100.00;101412.41;5053849;28;20448;-74
2021/11/19 04:26:55;;;;;;;;;;;;;;;10.03;100.00;101418.81;5070206;28;19935;-74
2021/11/19 04:29:22;;;;;;;;;;;;;;;10.05;100.00;101414.16;5069939;28;19924;-73
2021/11/19 04:31:57;;;;;;;;;;;;;;;10.05;100.00;101427.72;5053831;28;19940;-73
2021/11/19 04:34:23;;;;;;;;;;;;;;;10.05;100.00;101415.00;5070980;28;20013;-71
2021/11/19 04:36:49;;;;;;;;;;;;;;;10.04;100.00;101425.97;5070224;28;20373;-73
2021/11/19 04:39:17;;;;;;;;;;;;;;;10.06;100.00;101424.00;5054359;28;20024;-73
2021/11/19 04:41:44;;;;;;;;;;;;;;;10.04;100.00;101426.84;5071701;28;20057;-73
2021/11/19 04:44:10;;;;;;;;;;;;;;;10.05;100.00;101430.44;5070517;28;20381;-73
2021/11/19 04:46:42;;;;;;;;;;;;;;;10.04;100.00;101426.84;5070697;28;19986;-73
2021/11/19 04:49:08;;;;;;;;;;;;;;;10.05;100.00;101439.44;5071991;28;19925;-73
2021/11/19 04:51:36;;;;;;;;;;;;;;;10.02;100.00;101436.03;5069566;28;19925;-72
2021/11/19 04:54:04;;;;;;;;;;;;;;;10.03;100.00;101445.94;5070863;28;19978;-73
2021/11/19 04:56:32;;;;;;;;;;;;;;;10.01;100.00;101435.19;5070307;28;20008;-73
2021/11/19 04:58:59;;;;;;;;;;;;;;;10.01;100.00;101442.47;5070555;28;20013;-73
2021/11/19 05:01:27;;;;;;;;;;;;;;;10.01;100.00;101446.03;5070035;28;20015;-73
2021/11/19 05:04:07;;;;;;;;;;;;;;;10.00;100.00;101440.72;5072633;28;19945;-73
2021/11/19 05:06:34;;;;;;;;;;;;;;;9.97;100.00;101444.50;5053256;28;19974;-73
2021/11/19 05:09:01;;;;;;;;;;;;;;;9.95;100.00;101442.88;5069811;28;20373;-73
2021/11/19 05:11:30;;;;;;;;;;;;;;;9.89;100.00;101431.44;5080175;28;19959;-72
2021/11/19 05:13:59;;;;;;;;;;;;;;;9.88;100.00;101458.69;5106978;28;19924;-73
2021/11/19 05:16:26;;;;;;;;;;;;;;;9.84;100.00;101449.88;5106795;28;19954;-73
2021/11/19 05:18:54;;;;;;;;;;;;;;;9.81;100.00;101450.09;5106542;28;19943;-73
2021/11/19 05:21:21;;;;;;;;;;;;;;;9.80;100.00;101444.78;5106950;28;19982;-73
2021/11/19 05:23:48;;;;;;;;;;;;;;;9.80;100.00;101437.50;5107043;28;20015;-73
2021/11/19 05:26:15;;;;;;;;;;;;;;;9.79;100.00;101438.47;5106320;28;19938;-73
2021/11/19 05:28:42;;;;;;;;;;;;;;;9.80;100.00;101442.06;5107088;28;19928;-73
2021/11/19 05:31:11;;;;;;;;;;;;;;;9.80;100.00;101442.91;5106704;28;19954;-73
2021/11/19 05:33:38;;;;;;;;;;;;;;;9.81;100.00;101447.38;5091045;28;19962;-73
2021/11/19 05:36:07;;;;;;;;;;;;;;;9.85;100.00;101448.03;5105977;28;20015;-73
2021/11/19 05:38:39;;;;;;;;;;;;;;;9.87;100.00;101436.13;5106829;28;19927;-73
2021/11/19 05:41:06;;;;;;;;;;;;;;;9.88;100.00;101445.97;5106655;28;19938;-72
2021/11/19 05:43:33;;;;;;;;;;;;;;;9.93;100.00;101439.38;5106443;28;19928;-74
2021/11/19 05:46:05;;;;;;;;;;;;;;;9.94;100.00;101446.53;5106509;28;20013;-72
2021/11/19 05:48:45;;;;;;;;;;;;;;;9.97;100.00;101446.34;5106560;28;19971;-74
2021/11/19 05:51:12;;;;;;;;;;;;;;;10.00;100.00;101446.16;5106581;28;19958;-73
2021/11/19 05:53:39;;;;;;;;;;;;;;;10.01;100.00;101437.91;5088427;28;19962;-72
2021/11/19 05:56:05;;;;;;;;;;;;;;;10.07;100.00;101447.47;5072529;28;19958;-74
2021/11/19 05:58:33;;;;;;;;;;;;;;;10.08;100.00;101449.19;5071625;28;20504;-73
2021/11/19 06:01:02;;;;;;;;;;;;;;;10.09;100.00;101456.38;5082412;28;19986;-73
2021/11/19 06:03:39;;;;;;;;;;;;;;;10.13;100.00;101452.47;5079058;28;19954;-73
2021/11/19 06:06:19;;;;;;;;;;;;;;;10.15;100.00;101444.22;5092453;28;19989;-73
2021/11/19 06:09:08;;;;;;;;;;;;;;;10.20;100.00;101461.06;5092918;28;19924;-73
2021/11/19 06:11:38;;;;;;;;;;;;;;;10.21;100.00;101449.25;5094291;28;20459;-73
2021/11/19 06:14:06;;;;;;;;;;;;;;;10.24;100.00;101449.03;5076011;28;20430;-71
2021/11/19 06:16:33;;;;;;;;;;;;;;;10.25;100.00;101452.59;5094367;28;19981;-74
2021/11/19 06:19:01;;;;;;;;;;;;;;;10.27;100.00;101450.66;5092878;28;19945;-73
2021/11/19 06:21:36;;;;;;;;;;;;;;;10.29;100.00;101452.31;5094460;28;20416;-73
2021/11/19 06:24:04;;;;;;;;;;;;;;;10.31;100.00;101438.63;5076027;28;19966;-73
2021/11/19 06:26:32;;;;;;;;;;;;;;;10.31;100.00;101454.91;5092433;28;19959;-73
2021/11/19 06:29:04;;;;;;;;;;;;;;;10.29;100.00;101443.28;5094047;28;19960;-73
2021/11/19 06:31:32;;;;;;;;;;;;;;;10.28;100.00;101458.69;5076184;28;20404;-73
2021/11/19 06:33:58;;;;;;;;;;;;;;;10.28;100.00;101452.41;5094063;28;19947;-73
2021/11/19 06:36:25;;;;;;;;;;;;;;;10.27;100.00;101446.09;5075328;28;20456;-73
2021/11/19 06:38:52;;;;;;;;;;;;;;;10.30;100.00;101461.31;5069310;28;19935;-73
2021/11/19 06:41:19;;;;;;;;;;;;;;;10.29;100.00;101463.16;5075503;28;19962;-73
2021/11/19 06:44:06;;;;;;;;;;;;;;;10.32;100.00;101467.50;5075571;28;19924;-73
2021/11/19 06:46:38;;;;;;;;;;;;;;;10.31;100.00;101471.19;5074324;28;20016;-73
2021/11/19 06:49:40;;;;;;;;;;;;;;;10.33;100.00;101469.25;5073541;28;20392;-74
2021/11/19 06:52:25;;;;;;;;;;;;;;;10.35;100.00;101470.03;5076061;28;19953;-73
2021/11/19 06:55:20;;;;;;;;;;;;;;;10.31;100.00;101461.19;5074154;28;20037;-74
2021/11/19 06:57:52;;;;;;;;;;;;;;;10.31;100.00;101465.75;5092706;28;20065;-74
2021/11/19 07:00:21;;;;;;;;;;;;;;;10.27;100.00;101465.09;5074916;28;19977;-74
2021/11/19 07:02:47;;;;;;;;;;;;;;;10.26;100.00;101470.63;5093339;28;19953;-74
2021/11/19 07:05:14;;;;;;;;;;;;;;;10.23;100.00;101469.00;5078150;28;20517;-74
2021/11/19 07:07:41;;;;;;;;;;;;;;;10.22;100.00;101464.53;5075897;28;19980;-74
2021/11/19 07:10:08;;;;;;;;;;;;;;;10.25;100.00;101479.72;5074642;28;19966;-74
2021/11/19 07:12:36;;;;;;;;;;;;;;;10.25;100.00;101477.91;5074970;28;19965;-74
2021/11/19 07:15:05;;;;;;;;;;;;;;;10.26;100.00;101478.78;5091226;28;19931;-74
2021/11/19 07:17:31;;;;;;;;;;;;;;;10.28;100.00;101471.41;5091507;28;20351;-74
2021/11/19 07:19:58;;;;;;;;;;;;;;;10.31;100.00;101482.03;5089683;28;19938;-74
2021/11/19 07:22:25;;;;;;;;;;;;;;;10.31;100.00;101482.03;5074608;28;20025;-71
2021/11/19 07:25:02;;;;;;;;;;;;;;;10.35;100.00;101480.88;5057345;28;19939;-72
2021/11/19 07:27:29;;;;;;;;;;;;;;;10.36;100.00;101490.78;5074630;28;19962;-72
2021/11/19 07:29:56;;;;;;;;;;;;;;;10.37;100.00;101487.09;5074937;28;19942;-73
2021/11/19 07:32:55;;;;;;;;;;;;;;;10.41;100.00;101495.88;5093028;28;19974;-71
2021/11/19 07:35:41;;;;;;;;;;;;;;;10.46;100.00;101497.31;5086190;28;19965;-71
2021/11/19 07:38:20;;;;;;;;;;;;;;;10.50;100.00;101497.97;5075126;28;20542;-74
2021/11/19 07:41:06;;;;;;;;;;;;;;;10.52;100.00;101491.44;5092589;28;19939;-74
2021/11/19 07:43:52;;;;;;;;;;;;;;;10.57;100.00;101498.41;5072818;28;20549;-74
2021/11/19 07:46:25;;;;;;;;;;;;;;;10.58;100.00;101489.28;5070792;28;19928;-74
2021/11/19 07:48:56;;;;;;;;;;;;;;;10.57;100.00;101499.28;5055243;28;19939;-74
2021/11/19 07:51:26;;;;;;;;;;;;;;;10.60;100.00;101490.06;5081187;28;20356;-74
2021/11/19 07:53:54;;;;;;;;;;;;;;;10.60;100.00;101498.22;5074215;28;19977;-74
2021/11/19 07:56:26;;;;;;;;;;;;;;;10.60;100.00;101495.50;5091844;28;19954;-72
2021/11/19 07:58:53;;;;;;;;;;;;;;;10.60;100.00;101498.22;5090361;28;19934;-73
2021/11/19 08:01:20;;;;;;;;;;;;;;;10.62;100.00;101499.84;5091887;28;19924;-73
2021/11/19 08:03:47;;;;;;;;;;;;;;;10.65;100.00;101501.47;5073734;28;20014;-73
2021/11/19 08:06:14;;;;;;;;;;;;;;;10.66;100.00;101511.34;5091529;28;19924;-73
2021/11/19 08:08:49;;;;;;;;;;;;;;;10.67;100.00;101504.94;5090880;28;20023;-73
2021/11/19 08:11:19;;;;;;;;;;;;;;;10.66;100.00;101509.53;5073774;28;20002;-73
2021/11/19 08:13:46;;;;;;;;;;;;;;;10.67;100.00;101510.38;5074163;28;19928;-73
2021/11/19 08:16:13;;;;;;;;;;;;;;;10.67;100.00;101505.81;5090377;28;20412;-73
2021/11/19 08:18:58;;;;;;;;;;;;;;;10.67;100.00;101496.81;5090548;28;19928;-72
2021/11/19 08:21:26;;;;;;;;;;;;;;;10.69;100.00;101503.00;5090532;28;19966;-73
2021/11/19 08:23:55;;;;;;;;;;;;;;;10.72;100.00;101510.94;5091215;28;20037;-73
2021/11/19 08:26:22;;;;;;;;;;;;;;;10.74;100.00;101511.69;5090471;28;19928;-73
2021/11/19 08:28:49;;;;;;;;;;;;;;;10.72;100.00;101513.66;5090650;28;20379;-72
2021/11/19 08:31:18;;;;;;;;;;;;;;;10.76;100.00;101515.16;5091602;28;20079;-72
2021/11/19 08:33:45;;;;;;;;;;;;;;;10.78;100.00;101518.63;5083856;28;19924;-73
2021/11/19 08:36:13;;;;;;;;;;;;;;;10.80;100.00;101526.69;5091160;28;19998;-73
2021/11/19 08:38:41;;;;;;;;;;;;;;;10.80;100.00;101513.97;5090961;28;19924;-73
2021/11/19 08:41:08;;;;;;;;;;;;;;;10.80;100.00;101519.41;5091203;28;19960;-72
2021/11/19 08:43:36;;;;;;;;;;;;;;;10.81;100.00;101515.72;5091457;28;20009;-72
2021/11/19 08:46:05;;;;;;;;;;;;;;;10.82;100.00;101525.63;5090977;28;19935;-73
2021/11/19 08:48:33;;;;;;;;;;;;;;;10.82;100.00;101530.16;5082128;28;19982;-73
2021/11/19 08:51:01;;;;;;;;;;;;;;;10.82;100.00;101522.03;5090789;28;19977;-73
2021/11/19 08:53:29;;;;;;;;;;;;;;;10.85;100.00;101524.50;5090538;28;19924;-74
2021/11/19 08:55:57;;;;;;;;;;;;;;;10.81;100.00;101515.72;5090373;28;19924;-73
2021/11/19 08:58:24;;;;;;;;;;;;;;;10.83;100.00;101511.03;5091341;28;19924;-73
2021/11/19 09:00:53;;;;;;;;;;;;;;;10.84;100.00;101517.38;5090923;28;20022;-73
2021/11/19 09:03:19;;;;;;;;;;;;;;;10.80;100.00;101513.13;5091213;28;19924;-74
2021/11/19 09:05:46;;;;;;;;;;;;;;;10.79;100.00;101525.81;5089989;28;19997;-74
2021/11/19 09:08:16;;;;;;;;;;;;;;;10.77;100.00;101519.63;5091068;28;20011;-72
2021/11/19 09:10:44;;;;;;;;;;;;;;;10.79;100.00;101538.53;5091218;28;20003;-72
2021/11/19 09:13:11;;;;;;;;;;;;;;;10.80;100.00;101532.13;5090460;28;19928;-74
2021/11/19 09:15:37;;;;;;;;;;;;;;;10.83;100.00;101540.91;5072447;28;20054;-72
2021/11/19 09:18:07;;;;;;;;;;;;;;;10.86;100.00;101546.16;5090408;28;19967;-72
2021/11/19 09:20:37;;;;;;;;;;;;;;;10.89;100.00;101516.06;5090013;28;19956;-73
2021/11/19 09:23:06;;;;;;;;;;;;;;;10.92;100.00;101524.97;5090796;28;19930;-72
2021/11/19 09:25:33;;;;;;;;;;;;;;;10.94;100.00;101512.16;5090160;28;19978;-72
2021/11/19 09:28:01;;;;;;;;;;;;;;;10.98;100.00;101528.13;5091124;28;20400;-72
2021/11/19 09:30:31;;;;;;;;;;;;;;;11.02;100.00;101521.50;5071792;28;19931;-72
2021/11/19 09:32:59;;;;;;;;;;;;;;;11.05;100.00;101509.56;5090799;28;20014;-72
2021/11/19 09:35:26;;;;;;;;;;;;;;;11.09;100.00;101530.09;5072189;28;19963;-73
2021/11/19 09:37:53;;;;;;;;;;;;;;;11.08;100.00;101528.34;5089889;28;20015;-72
2021/11/19 09:40:20;;;;;;;;;;;;;;;11.10;100.00;101529.09;5090555;28;19979;-73
2021/11/19 09:42:50;;;;;;;;;;;;;;;11.09;100.00;101537.34;5090337;28;20057;-72
2021/11/19 09:45:32;;;;;;;;;;;;;;;11.11;100.00;101519.97;5090709;28;19924;-72
2021/11/19 09:48:29;;;;;;;;;;;;;;;11.15;100.00;101540.50;5090625;28;19924;-73
2021/11/19 09:51:26;;;;;;;;;;;;;;;11.18;100.00;101543.03;5082344;28;19967;-72
2021/11/19 09:54:22;;;;;;;;;;;;;;;11.18;100.00;101540.31;5090606;28;19963;-73
2021/11/19 09:57:07;;;;;;;;;;;;;;;11.15;100.00;101535.06;5083918;28;19971;-73
2021/11/19 09:59:36;;;;;;;;;;;;;;;11.16;100.00;101542.25;5078056;28;19928;-73
2021/11/19 10:02:11;;;;;;;;;;;;;;;11.15;100.00;101537.78;5088871;28;20385;-73
2021/11/19 10:04:48;;;;;;;;;;;;;;;11.15;100.00;101532.34;5089110;28;19958;-73
2021/11/19 10:07:22;;;;;;;;;;;;;;;11.14;100.00;101541.47;5089683;28;19950;-73
2021/11/19 10:09:56;;;;;;;;;;;;;;;11.12;100.00;101538.00;5090708;28;19975;-73
2021/11/19 10:12:24;;;;;;;;;;;;;;;11.12;100.00;101545.31;5090092;28;19963;-73
2021/11/19 10:14:59;;;;;;;;;;;;;;;11.09;100.00;101538.25;5090038;28;20026;-73
2021/11/19 10:17:34;;;;;;;;;;;;;;;11.09;100.00;101532.81;5082763;28;19928;-73
2021/11/19 10:20:02;;;;;;;;;;;;;;;11.09;100.00;101537.34;5090255;28;19928;-73
2021/11/19 10:22:31;;;;;;;;;;;;;;;11.07;100.00;101537.47;5090211;28;20026;-73
2021/11/19 10:25:03;;;;;;;;;;;;;;;11.08;100.00;101531.06;5089530;28;20001;-73
2021/11/19 10:27:30;;;;;;;;;;;;;;;11.08;100.00;101531.06;5093443;28;19985;-73
2021/11/19 10:30:00;;;;;;;;;;;;;;;11.10;100.00;101522.81;5090779;28;20296;-74
2021/11/19 10:32:27;;;;;;;;;;;;;;;11.11;100.00;101525.41;5089542;28;19930;-73
2021/11/19 10:35:01;;;;;;;;;;;;;;;11.10;100.00;101517.38;5090311;28;19997;-74
2021/11/19 10:37:57;;;;;;;;;;;;;;;11.09;100.00;101521.06;5088317;28;20049;-74
2021/11/19 10:40:35;;;;;;;;;;;;;;;11.07;100.00;101514.88;5085697;28;20006;-73
2021/11/19 10:43:25;;;;;;;;;;;;;;;11.11;100.00;101513.69;5087586;28;20427;-74
2021/11/19 10:46:06;;;;;;;;;;;;;;;11.10;100.00;101512.78;5088521;28;19959;-73
2021/11/19 10:48:46;;;;;;;;;;;;;;;11.14;100.00;101516.16;5085666;28;20439;-73
2021/11/19 10:51:28;;;;;;;;;;;;;;;11.17;100.00;101514.09;5080788;28;19994;-73
2021/11/19 10:54:09;;;;;;;;;;;;;;;11.20;100.00;101523.91;5084284;28;19968;-73
2021/11/19 10:56:50;;;;;;;;;;;;;;;11.21;100.00;101515.63;5082413;28;19976;-73
2021/11/19 10:59:43;;;;;;;;;;;;;;;11.22;100.00;101532.78;5085904;28;19924;-73
2021/11/19 11:02:32;;;;;;;;;;;;;;;11.23;100.00;101523.66;5033216;28;19958;-73
2021/11/19 11:05:00;;;;;;;;;;;;;;;11.27;100.00;101525.19;5093556;28;19993;-74
2021/11/19 11:07:30;;;;;;;;;;;;;;;11.29;100.00;101523.22;5092979;28;19981;-73
2021/11/19 11:10:00;;;;;;;;;;;;;;;11.32;100.00;101522.16;5091812;28;20019;-73
2021/11/19 11:12:29;;;;;;;;;;;;;;;11.33;100.00;101523.88;5092973;28;19928;-73
2021/11/19 11:15:14;;;;;;;;;;;;;;;11.29;100.00;101533.22;5093122;28;19977;-73
2021/11/19 11:17:49;;;;;;;;;;;;;;;11.27;100.00;101530.63;5093456;28;20024;-73
2021/11/19 11:20:22;;;;;;;;;;;;;;;11.20;100.00;101519.31;5092622;28;19967;-74
2021/11/19 11:22:52;;;;;;;;;;;;;;;11.19;100.00;101517.56;5093241;28;19963;-73
2021/11/19 11:25:24;;;;;;;;;;;;;;;11.15;100.00;101526.91;5074602;28;19947;-74
2021/11/19 11:27:59;;;;;;;;;;;;;;;11.11;100.00;101525.41;5092726;28;20049;-74
2021/11/19 11:30:27;;;;;;;;;;;;;;;11.09;100.00;101516.50;5092702;28;19970;-74
2021/11/19 11:32:58;;;;;;;;;;;;;;;11.07;100.00;101520.31;5092918;28;19955;-72
2021/11/19 11:35:31;;;;;;;;;;;;;;;11.04;100.00;101519.53;5092378;28;19989;-74
2021/11/19 11:38:12;;;;;;;;;;;;;;;11.02;100.00;101521.50;5092202;28;19968;-74
2021/11/19 11:40:40;;;;;;;;;;;;;;;11.03;100.00;101519.66;5072408;28;19963;-74
2021/11/19 11:43:20;;;;;;;;;;;;;;;11.03;100.00;101517.78;5092307;28;20026;-73
2021/11/19 11:45:49;;;;;;;;;;;;;;;11.01;100.00;101514.31;5092616;28;20006;-74
2021/11/19 11:48:23;;;;;;;;;;;;;;;11.04;100.00;101514.09;5092643;28;20465;-73
2021/11/19 11:50:54;;;;;;;;;;;;;;;11.03;100.00;101519.66;5091407;28;20286;-73
2021/11/19 11:53:24;;;;;;;;;;;;;;;11.05;100.00;101509.56;5092260;28;19924;-74
2021/11/19 11:56:08;;;;;;;;;;;;;;;11.05;100.00;101515.00;5091966;28;20372;-74
2021/11/19 11:58:42;;;;;;;;;;;;;;;11.06;100.00;101522.13;5092385;28;19967;-73
2021/11/19 12:01:12;;;;;;;;;;;;;;;11.09;100.00;101519.22;5092030;28;19959;-73
2021/11/19 12:03:45;;;;;;;;;;;;;;;11.09;100.00;101521.94;5092150;28;19979;-74
2021/11/19 12:06:15;;;;;;;;;;;;;;;11.10;100.00;101523.66;5073487;28;20391;-74
2021/11/19 12:09:03;;;;;;;;;;;;;;;11.14;100.00;101519.75;5091858;28;20349;-73
2021/11/19 12:11:48;;;;;;;;;;;;;;;11.19;100.00;101512.13;5077438;28;20036;-73
2021/11/19 12:14:21;;;;;;;;;;;;;;;11.25;100.00;101510.84;5091804;28;20037;-73
2021/11/19 12:16:54;;;;;;;;;;;;;;;11.34;100.00;101507.47;5091579;28;20061;-73
2021/11/19 12:19:23;;;;;;;;;;;;;;;11.45;100.00;101505.81;5091990;28;19997;-73
2021/11/19 12:21:51;;;;;;;;;;;;;;;11.49;100.00;101497.31;5091501;28;19943;-72
2021/11/19 12:24:21;;;;;;;;;;;;;;;11.51;100.00;101499.94;5092055;28;19977;-74
2021/11/19 12:26:56;;;;;;;;;;;;;;;11.52;100.00;101496.25;5091072;28;19993;-72
2021/11/19 12:29:27;;;;;;;;;;;;;;;11.52;100.00;101499.81;5091510;28;19991;-73
2021/11/19 12:31:58;;;;;;;;;;;;;;;11.53;100.00;101492.50;5091716;28;19961;-73
2021/11/19 12:34:29;;;;;;;;;;;;;;;11.52;100.00;101497.09;5091548;28;19939;-73
2021/11/19 12:36:57;;;;;;;;;;;;;;;11.51;100.00;101492.63;5091194;28;20064;-73
2021/11/19 12:39:25;;;;;;;;;;;;;;;11.54;100.00;101505.13;5091036;28;19947;-73
2021/11/19 12:41:58;;;;;;;;;;;;;;;11.53;100.00;101485.25;5089166;28;20647;-72
2021/11/19 12:44:31;;;;;;;;;;;;;;;11.54;100.00;101487.00;5091602;28;19956;-72
2021/11/19 12:47:16;;;;;;;;;;;;;;;11.54;100.00;101495.16;5090886;28;19962;-71
2021/11/19 12:50:00;;;;;;;;;;;;;;;11.54;100.00;101476.13;5077952;28;20005;-72
2021/11/19 12:52:36;;;;;;;;;;;;;;;11.54;100.00;101486.09;5090877;28;19962;-73